Brooks, Iowa
Current Conditions -  °F | °C
As of 7:55 AM on Sunday 25 Jan 2015 (Local Time) from KCSQ Reporting Station
Overcast Overcast  
Wind Chill: 23°   Ceiling: 500
Heat Index: 34°   Visibility: 7mi
Dew Point: 34°   Wind: 17mph
Humidity: 100%   Direction: 340°NNW
Pressure: 29.68"   Gusts: 24mph
Location:  41.0285°N, 94.7568°W
Report Text: KCSQ 251355Z AUTO 34015G21KT 7SM OVC005 01/01 A2968 RMK AO2
Loading
Personal Weather Stations






























Interactive Weather Map New forecast layout! Learn more

10-Day Weather Forecast

Advertisements
Track Severe Weather on mobile